createdAt,value
2018-11-10T00:00:32.860Z,38.70
2018-11-10T00:01:33.039Z,43.40
2018-11-10T00:02:33.202Z,39.80
2018-11-10T00:03:33.385Z,42.80
2018-11-10T00:04:33.549Z,41.90
2018-11-10T00:05:33.727Z,40.30
2018-11-10T00:06:33.911Z,42.60
2018-11-10T00:07:34.073Z,42.20
2018-11-10T00:08:34.249Z,45.10
2018-11-10T00:09:34.425Z,41.60
2018-11-10T00:10:34.601Z,38.70
2018-11-10T00:11:34.773Z,37.60
2018-11-10T00:12:34.948Z,37.10
2018-11-10T00:13:35.124Z,38.50
2018-11-10T00:14:35.297Z,38.10
2018-11-10T00:15:35.472Z,38.20
2018-11-10T00:16:35.770Z,38.50
2018-11-10T00:17:35.818Z,39.00
2018-11-10T00:18:35.997Z,39.50
2018-11-10T00:19:36.169Z,34.60
2018-11-10T00:20:36.350Z,37.70
2018-11-10T00:21:36.518Z,35.90
2018-11-10T00:22:36.694Z,36.80
2018-11-10T00:23:36.886Z,38.90
2018-11-10T00:24:37.038Z,40.30
2018-11-10T00:25:37.213Z,37.70
2018-11-10T00:26:37.390Z,38.80
2018-11-10T00:27:37.562Z,37.80
2018-11-10T00:28:37.730Z,41.00
2018-11-10T00:29:37.907Z,36.70
2018-11-10T00:30:38.084Z,36.20
2018-11-10T00:31:38.262Z,38.20
2018-11-10T00:32:38.430Z,38.70
2018-11-10T00:33:38.605Z,37.40
2018-11-10T00:34:38.800Z,39.20
2018-11-10T00:35:38.961Z,36.70
2018-11-10T00:36:39.129Z,35.20
2018-11-10T00:37:39.304Z,38.40
2018-11-10T00:38:39.479Z,36.90
2018-11-10T00:39:39.654Z,37.40
2018-11-10T00:40:39.828Z,37.10
2018-11-10T00:41:40.003Z,40.50
2018-11-10T00:42:40.176Z,38.10
2018-11-10T00:43:40.354Z,36.20
2018-11-10T00:44:40.529Z,37.80
2018-11-10T00:45:40.707Z,38.10
2018-11-10T00:46:40.885Z,34.80
2018-11-10T00:47:41.053Z,37.60
2018-11-10T00:48:41.237Z,41.30
2018-11-10T00:49:41.402Z,36.70
2018-11-10T00:50:41.577Z,36.30
2018-11-10T00:51:41.751Z,36.60
2018-11-10T00:52:41.929Z,37.90
2018-11-10T00:53:42.101Z,36.10
2018-11-10T00:54:42.296Z,38.20
2018-11-10T00:55:42.443Z,34.80
2018-11-10T00:56:42.620Z,36.70
2018-11-10T00:57:42.794Z,35.30
2018-11-10T00:58:42.968Z,38.70
2018-11-10T00:59:43.143Z,36.80
2018-11-10T01:00:43.318Z,35.70
2018-11-10T01:01:43.492Z,35.90
2018-11-10T01:02:43.669Z,35.80
2018-11-10T01:03:43.845Z,35.80
2018-11-10T01:04:44.037Z,36.00
2018-11-10T01:05:44.188Z,40.10
2018-11-10T01:06:44.367Z,36.20
2018-11-10T01:07:44.537Z,35.20
2018-11-10T01:08:44.713Z,35.00
2018-11-10T01:09:44.888Z,37.00
2018-11-10T01:10:45.064Z,36.50
2018-11-10T01:11:45.248Z,34.50
2018-11-10T01:12:45.411Z,35.40
2018-11-10T01:13:45.589Z,35.90
2018-11-10T01:14:45.760Z,35.80
2018-11-10T01:15:45.939Z,35.30
2018-11-10T01:16:46.109Z,37.50
2018-11-10T01:17:46.284Z,31.10
2018-11-10T01:18:46.456Z,35.70
2018-11-10T01:19:46.636Z,33.30
2018-11-10T01:20:46.803Z,37.70
2018-11-10T01:21:46.980Z,35.70
2018-11-10T01:22:47.151Z,35.50
2018-11-10T01:23:47.326Z,39.30
2018-11-10T01:24:47.500Z,37.30
2018-11-10T01:25:47.678Z,35.80
2018-11-10T01:26:47.858Z,39.10
2018-11-10T01:27:48.154Z,38.30
2018-11-10T01:28:48.197Z,38.30
2018-11-10T01:29:48.375Z,39.00
2018-11-10T01:30:48.551Z,36.70
2018-11-10T01:31:48.719Z,35.20
2018-11-10T01:32:48.891Z,36.30
2018-11-10T01:33:49.071Z,34.80
2018-11-10T01:34:49.241Z,36.50
2018-11-10T01:35:49.420Z,38.20
2018-11-10T01:36:49.590Z,37.60
2018-11-10T01:37:49.763Z,32.50
2018-11-10T01:38:49.940Z,36.70
2018-11-10T01:39:50.138Z,33.50
2018-11-10T01:40:50.286Z,33.40
2018-11-10T01:41:50.463Z,37.60
2018-11-10T01:42:50.638Z,33.80
2018-11-10T01:43:50.816Z,34.90
2018-11-10T01:44:50.988Z,39.50
2018-11-10T01:45:51.164Z,36.00
2018-11-10T01:46:51.342Z,31.60
2018-11-10T01:47:51.515Z,37.80
2018-11-10T01:48:51.697Z,36.10
2018-11-10T01:49:51.871Z,36.90
2018-11-10T01:50:52.046Z,36.70
2018-11-10T01:51:52.214Z,34.70
2018-11-10T01:52:52.392Z,34.20
2018-11-10T01:53:52.563Z,33.80
2018-11-10T01:54:52.737Z,37.10
2018-11-10T01:55:52.909Z,34.50
2018-11-10T01:56:53.085Z,35.50
2018-11-10T01:57:53.260Z,33.10
2018-11-10T01:58:53.437Z,34.10
2018-11-10T01:59:53.610Z,36.60
2018-11-10T02:00:53.783Z,36.60
2018-11-10T02:01:53.961Z,34.00
2018-11-10T02:02:54.136Z,37.00
2018-11-10T02:03:54.306Z,31.60
2018-11-10T02:04:54.488Z,33.90
2018-11-10T02:05:54.655Z,36.60
2018-11-10T02:06:54.831Z,31.90
2018-11-10T02:07:55.009Z,35.50
2018-11-10T02:08:55.187Z,34.50
2018-11-10T02:09:55.356Z,34.10
2018-11-10T02:10:55.532Z,35.50
2018-11-10T02:11:55.707Z,36.50
2018-11-10T02:12:55.881Z,34.10
2018-11-10T02:13:56.058Z,36.40
2018-11-10T02:14:56.229Z,37.90
2018-11-10T02:15:56.405Z,38.20
2018-11-10T02:16:56.586Z,36.10
2018-11-10T02:17:56.753Z,35.70
2018-11-10T02:18:56.927Z,33.50
2018-11-10T02:19:57.104Z,37.00
2018-11-10T02:20:57.277Z,35.70
2018-11-10T02:21:57.449Z,37.10
2018-11-10T02:22:57.625Z,35.20
2018-11-10T02:23:57.807Z,35.50
2018-11-10T02:24:57.978Z,36.40
2018-11-10T02:25:58.151Z,34.70
2018-11-10T02:26:58.326Z,34.70
2018-11-10T02:27:58.507Z,36.60
2018-11-10T02:28:58.669Z,35.20
2018-11-10T02:29:58.842Z,37.00
2018-11-10T02:30:59.021Z,34.00
2018-11-10T02:31:59.191Z,37.30
2018-11-10T02:32:59.375Z,34.80
2018-11-10T02:33:59.546Z,35.00
2018-11-10T02:34:59.713Z,34.20
2018-11-10T02:35:59.891Z,34.40
2018-11-10T02:37:00.067Z,37.60
2018-11-10T02:38:00.236Z,36.50
2018-11-10T02:39:00.411Z,40.60
2018-11-10T02:40:00.584Z,35.30
2018-11-10T02:41:00.757Z,34.90
2018-11-10T02:42:00.932Z,38.80
2018-11-10T02:43:01.104Z,38.80
2018-11-10T02:44:01.280Z,36.60
2018-11-10T02:45:01.486Z,41.10
2018-11-10T02:46:01.631Z,39.60
2018-11-10T02:47:01.814Z,34.90
2018-11-10T02:48:01.988Z,38.20
2018-11-10T02:49:02.161Z,38.20
2018-11-10T02:50:02.336Z,38.40
2018-11-10T02:51:02.506Z,37.40
2018-11-10T02:52:02.677Z,37.70
2018-11-10T02:53:02.854Z,39.90
2018-11-10T02:54:03.025Z,34.10
2018-11-10T02:55:03.198Z,37.10
2018-11-10T02:56:03.371Z,34.20
2018-11-10T02:57:03.546Z,39.10
2018-11-10T02:58:03.724Z,39.40
2018-11-10T02:59:03.897Z,40.80
2018-11-10T03:00:04.072Z,41.80
2018-11-10T03:01:04.247Z,38.50
2018-11-10T03:02:04.426Z,39.20
2018-11-10T03:03:04.598Z,34.70
2018-11-10T03:04:04.772Z,36.30
2018-11-10T03:05:04.946Z,37.50
2018-11-10T03:06:05.118Z,36.70
2018-11-10T03:07:05.293Z,39.90
2018-11-10T03:08:05.465Z,36.30
2018-11-10T03:09:05.645Z,34.20
2018-11-10T03:10:05.820Z,37.90
2018-11-10T03:11:06.009Z,37.70
2018-11-10T03:12:06.166Z,40.80
2018-11-10T03:13:06.339Z,32.30
2018-11-10T03:14:06.515Z,34.10
2018-11-10T03:15:06.695Z,34.40
2018-11-10T03:16:06.866Z,36.60
2018-11-10T03:17:07.038Z,36.00
2018-11-10T03:18:07.213Z,36.80
2018-11-10T03:19:07.388Z,36.30
2018-11-10T03:20:07.561Z,39.90
2018-11-10T03:21:07.737Z,37.90
2018-11-10T03:22:07.909Z,38.40
2018-11-10T03:23:08.087Z,38.40
2018-11-10T03:24:08.259Z,39.10
2018-11-10T03:25:08.432Z,38.00
2018-11-10T03:26:08.605Z,38.40
2018-11-10T03:27:08.779Z,38.50
2018-11-10T03:28:08.956Z,43.30
2018-11-10T03:29:09.130Z,41.50
2018-11-10T03:30:09.306Z,42.30
2018-11-10T03:31:09.478Z,41.60
2018-11-10T03:32:09.655Z,37.80
2018-11-10T03:33:09.833Z,41.90
2018-11-10T03:34:09.999Z,38.20
2018-11-10T03:35:10.174Z,36.70
2018-11-10T03:36:10.347Z,35.90
2018-11-10T03:37:10.518Z,36.90
2018-11-10T03:38:10.696Z,32.50
2018-11-10T03:39:10.873Z,36.00
2018-11-10T03:40:11.043Z,37.00
2018-11-10T03:41:11.223Z,35.30
2018-11-10T03:42:11.385Z,36.60
2018-11-10T03:43:11.559Z,34.20
2018-11-10T03:44:11.741Z,35.00
2018-11-10T03:45:11.904Z,34.40
2018-11-10T03:46:12.078Z,36.70
2018-11-10T03:47:12.252Z,37.10
2018-11-10T03:48:12.425Z,32.50
2018-11-10T03:49:12.598Z,32.60
2018-11-10T03:50:12.773Z,33.30
2018-11-10T03:51:12.946Z,36.50
2018-11-10T03:52:13.118Z,38.00
2018-11-10T03:53:13.294Z,37.10
2018-11-10T03:54:13.467Z,38.10
2018-11-10T03:55:13.641Z,35.00
2018-11-10T03:56:13.814Z,36.70
2018-11-10T03:57:13.993Z,37.90
2018-11-10T03:58:14.170Z,34.50
2018-11-10T03:59:14.342Z,36.60
2018-11-10T04:00:14.512Z,36.70
2018-11-10T04:01:14.683Z,36.00
2018-11-10T04:02:14.858Z,36.80
2018-11-10T04:03:15.032Z,38.00
2018-11-10T04:04:15.203Z,37.70
2018-11-10T04:05:15.379Z,36.60
2018-11-10T04:06:15.547Z,37.40
2018-11-10T04:07:15.723Z,37.50
2018-11-10T04:08:15.900Z,37.70
2018-11-10T04:09:16.070Z,36.20
2018-11-10T04:10:16.240Z,35.60
2018-11-10T04:11:16.416Z,40.90
2018-11-10T04:12:16.603Z,38.20
2018-11-10T04:13:16.761Z,39.80
2018-11-10T04:14:16.938Z,41.00
2018-11-10T04:15:17.115Z,40.70
2018-11-10T04:16:17.282Z,41.70
2018-11-10T04:17:17.454Z,41.20
2018-11-10T04:18:17.626Z,36.10
2018-11-10T04:19:17.802Z,41.20
2018-11-10T04:20:17.977Z,39.50
2018-11-10T04:21:18.151Z,44.10
2018-11-10T04:22:18.323Z,43.10
2018-11-10T04:23:18.496Z,44.80
2018-11-10T04:24:18.672Z,43.30
2018-11-10T04:25:18.852Z,39.60
2018-11-10T04:26:19.025Z,40.80
2018-11-10T04:27:19.198Z,45.00
2018-11-10T04:28:19.374Z,46.60
2018-11-10T04:29:19.547Z,47.40
2018-11-10T04:30:19.723Z,50.20
2018-11-10T04:31:19.895Z,45.60
2018-11-10T04:32:20.072Z,49.50
2018-11-10T04:33:20.244Z,45.60
2018-11-10T04:34:20.420Z,49.70
2018-11-10T04:35:20.592Z,49.40
2018-11-10T04:36:20.766Z,51.80
2018-11-10T04:37:20.943Z,47.70
2018-11-10T04:38:21.126Z,48.90
2018-11-10T04:39:21.290Z,51.90
2018-11-10T04:40:21.465Z,48.10
2018-11-10T04:41:21.634Z,46.30
2018-11-10T04:42:21.812Z,45.40
2018-11-10T04:43:21.987Z,47.80
2018-11-10T04:44:22.162Z,52.60
2018-11-10T04:45:22.337Z,51.50
2018-11-10T04:46:22.508Z,49.60
2018-11-10T04:47:22.683Z,51.20
2018-11-10T04:48:22.867Z,51.80
2018-11-10T04:49:23.033Z,47.90
2018-11-10T04:50:23.205Z,54.80
2018-11-10T04:51:23.381Z,54.70
2018-11-10T04:52:23.553Z,51.10
2018-11-10T04:53:23.725Z,55.40
2018-11-10T04:54:23.904Z,52.70
2018-11-10T04:55:24.077Z,56.00
2018-11-10T04:56:24.252Z,52.80
2018-11-10T04:57:24.436Z,53.20
2018-11-10T04:58:24.599Z,51.90
2018-11-10T04:59:24.773Z,49.50
2018-11-10T05:00:24.947Z,54.90
2018-11-10T05:01:25.162Z,54.90
2018-11-10T05:02:25.294Z,56.60
2018-11-10T05:03:25.469Z,57.90
2018-11-10T05:04:25.643Z,57.60
2018-11-10T05:05:25.822Z,60.80
2018-11-10T05:06:25.993Z,56.20
2018-11-10T05:07:26.167Z,55.60
2018-11-10T05:08:26.342Z,55.10
2018-11-10T05:09:26.522Z,51.30
2018-11-10T05:10:26.688Z,49.50
2018-11-10T05:11:26.862Z,51.10
2018-11-10T05:12:27.039Z,54.80
2018-11-10T05:13:27.217Z,51.30
2018-11-10T05:14:27.387Z,49.50
2018-11-10T05:15:27.557Z,55.10
2018-11-10T05:16:27.730Z,55.00
2018-11-10T05:17:27.904Z,53.60
2018-11-10T05:18:28.078Z,52.70
2018-11-10T05:19:28.252Z,50.70
2018-11-10T05:20:28.425Z,53.10
2018-11-10T05:21:28.601Z,54.70
2018-11-10T05:22:28.776Z,52.50
2018-11-10T05:23:28.948Z,50.30
2018-11-10T05:24:29.124Z,53.90
2018-11-10T05:25:29.300Z,51.90
2018-11-10T05:26:29.474Z,53.30
2018-11-10T05:27:29.652Z,52.60
2018-11-10T05:28:29.828Z,49.60
2018-11-10T05:29:29.999Z,52.90
2018-11-10T05:30:30.174Z,49.90
2018-11-10T05:31:30.349Z,54.20
2018-11-10T05:32:30.525Z,54.50
2018-11-10T05:33:30.696Z,51.10
2018-11-10T05:34:30.871Z,54.40
2018-11-10T05:35:31.044Z,51.70
2018-11-10T05:36:31.219Z,54.30
2018-11-10T05:37:31.397Z,49.00
2018-11-10T05:38:31.577Z,49.10
2018-11-10T05:39:31.744Z,44.40
2018-11-10T05:40:31.918Z,46.10
2018-11-10T05:41:32.100Z,43.40
2018-11-10T05:42:32.271Z,42.30
2018-11-10T05:43:32.442Z,42.30
2018-11-10T05:44:32.619Z,44.60
2018-11-10T05:45:32.789Z,43.40
2018-11-10T05:46:32.962Z,42.20
2018-11-10T05:47:33.137Z,42.70
2018-11-10T05:48:33.310Z,43.60
2018-11-10T05:49:33.484Z,43.00
2018-11-10T05:50:33.662Z,41.00
2018-11-10T05:51:33.833Z,40.10
2018-11-10T05:52:34.006Z,41.50
2018-11-10T05:53:34.185Z,43.70
2018-11-10T05:54:34.358Z,39.70
2018-11-10T05:55:34.532Z,45.50
2018-11-10T05:56:34.705Z,44.10
2018-11-10T05:57:34.878Z,43.20
2018-11-10T05:58:35.053Z,43.40
2018-11-10T05:59:35.226Z,46.60
2018-11-10T06:00:35.400Z,48.10
2018-11-10T06:01:35.575Z,48.90
2018-11-10T06:02:35.752Z,47.70
2018-11-10T06:03:35.923Z,47.00
2018-11-10T06:04:36.102Z,43.50
2018-11-10T06:05:36.278Z,43.00
2018-11-10T06:06:36.451Z,42.60
2018-11-10T06:07:36.622Z,39.80
2018-11-10T06:08:36.799Z,42.60
2018-11-10T06:09:37.096Z,38.90
2018-11-10T06:10:37.146Z,40.80
2018-11-10T06:11:37.325Z,38.60
2018-11-10T06:12:37.497Z,42.50
2018-11-10T06:13:37.669Z,40.80
2018-11-10T06:14:37.844Z,36.00
2018-11-10T06:15:38.020Z,39.30
2018-11-10T06:16:38.192Z,38.30
2018-11-10T06:17:38.368Z,38.80
2018-11-10T06:18:38.582Z,37.20
2018-11-10T06:19:38.725Z,36.90
2018-11-10T06:20:38.896Z,37.50
2018-11-10T06:21:39.078Z,40.30
2018-11-10T06:22:39.238Z,41.30
2018-11-10T06:23:39.412Z,38.80
2018-11-10T06:24:39.592Z,40.10
2018-11-10T06:25:39.773Z,41.40
2018-11-10T06:26:39.936Z,38.40
2018-11-10T06:27:40.107Z,41.00
2018-11-10T06:28:40.283Z,35.90
2018-11-10T06:29:40.461Z,36.90
2018-11-10T06:30:40.637Z,37.30
2018-11-10T06:31:40.809Z,47.20
2018-11-10T06:32:41.140Z,46.40
2018-11-10T06:33:41.154Z,40.90
2018-11-10T06:34:41.325Z,80.30
2018-11-10T06:35:41.501Z,54.50
2018-11-10T06:36:41.674Z,53.50
2018-11-10T06:37:41.846Z,45.20
2018-11-10T06:38:42.020Z,39.00
2018-11-10T06:39:42.195Z,33.80
2018-11-10T06:40:42.369Z,31.30
2018-11-10T06:41:42.545Z,32.80
2018-11-10T06:42:42.726Z,32.30
2018-11-10T06:43:42.898Z,36.40
2018-11-10T06:44:43.069Z,37.70
2018-11-10T06:45:43.244Z,34.40
2018-11-10T06:46:43.418Z,37.50
2018-11-10T06:47:43.585Z,35.70
2018-11-10T06:48:43.762Z,37.30
2018-11-10T06:49:43.942Z,36.50
2018-11-10T06:50:44.110Z,33.90
2018-11-10T06:51:44.284Z,34.70
2018-11-10T06:52:44.471Z,39.10
2018-11-10T06:53:44.637Z,35.80
2018-11-10T06:54:44.808Z,38.00
2018-11-10T06:55:44.985Z,36.70
2018-11-10T06:56:45.156Z,37.80
2018-11-10T06:57:45.332Z,39.30
2018-11-10T06:58:45.502Z,41.10
2018-11-10T06:59:45.676Z,39.30
2018-11-10T07:00:45.847Z,39.80
2018-11-10T07:01:46.020Z,39.40
2018-11-10T07:02:46.194Z,40.70
2018-11-10T07:03:46.365Z,40.60
2018-11-10T07:04:46.560Z,38.20
2018-11-10T07:05:46.737Z,37.50
2018-11-10T07:06:46.913Z,41.40
2018-11-10T07:07:47.090Z,38.00
2018-11-10T07:08:47.252Z,37.10
2018-11-10T07:09:47.426Z,42.50
2018-11-10T07:10:47.601Z,37.70
2018-11-10T07:11:47.775Z,36.50
2018-11-10T07:12:47.948Z,39.00
2018-11-10T07:13:48.123Z,36.80
2018-11-10T07:14:48.294Z,36.60
2018-11-10T07:15:48.480Z,41.20
2018-11-10T07:16:48.643Z,38.80
2018-11-10T07:17:48.892Z,38.10
2018-11-10T07:18:48.998Z,41.90
2018-11-10T07:19:49.179Z,35.70
2018-11-10T07:20:49.343Z,36.00
2018-11-10T07:21:49.526Z,32.90
2018-11-10T07:22:49.688Z,35.00
2018-11-10T07:23:49.853Z,34.70
2018-11-10T07:24:50.109Z,36.20
2018-11-10T07:25:50.209Z,38.10
2018-11-10T07:26:50.384Z,36.20
2018-11-10T07:27:50.557Z,36.00
2018-11-10T07:28:50.731Z,37.00
2018-11-10T07:29:50.905Z,35.60
2018-11-10T07:30:51.080Z,34.70
2018-11-10T07:31:51.333Z,34.40
2018-11-10T07:32:51.436Z,32.80
2018-11-10T07:33:51.606Z,33.20
2018-11-10T07:34:51.777Z,33.60
2018-11-10T07:35:51.950Z,33.00
2018-11-10T07:36:52.126Z,35.00
2018-11-10T07:37:52.310Z,34.00
2018-11-10T07:38:52.471Z,33.30
2018-11-10T07:39:52.646Z,33.50
2018-11-10T07:40:52.829Z,36.20
2018-11-10T07:41:52.995Z,34.80
2018-11-10T07:42:53.176Z,37.30
2018-11-10T07:43:53.360Z,33.40
2018-11-10T07:44:53.515Z,34.30
2018-11-10T07:45:53.695Z,33.30
2018-11-10T07:46:53.869Z,34.10
2018-11-10T07:47:54.044Z,35.60
2018-11-10T07:48:54.218Z,35.40
2018-11-10T07:49:54.392Z,32.80
2018-11-10T07:50:54.565Z,33.80
2018-11-10T07:51:54.740Z,33.80
2018-11-10T07:52:54.914Z,34.20
2018-11-10T07:53:55.094Z,33.50
2018-11-10T07:54:55.262Z,30.30
2018-11-10T07:55:55.488Z,32.50
2018-11-10T07:56:55.625Z,30.10
2018-11-10T07:57:55.785Z,33.40
2018-11-10T07:58:55.955Z,35.30
2018-11-10T07:59:56.136Z,32.20
2018-11-10T08:00:56.314Z,32.60
2018-11-10T08:01:56.482Z,31.20
2018-11-10T08:02:56.670Z,29.90
2018-11-10T08:03:56.848Z,29.50
2018-11-10T08:04:57.010Z,33.70
2018-11-10T08:05:57.186Z,29.60
2018-11-10T08:06:57.361Z,32.80
2018-11-10T08:07:57.545Z,31.90
2018-11-10T08:08:57.711Z,31.20
2018-11-10T08:09:57.932Z,28.70
2018-11-10T08:10:58.069Z,31.10
2018-11-10T08:11:58.292Z,31.50
2018-11-10T08:12:58.408Z,30.20
2018-11-10T08:13:58.587Z,30.40
2018-11-10T08:14:58.761Z,31.10
2018-11-10T08:15:58.936Z,34.10
2018-11-10T08:16:59.110Z,33.70
2018-11-10T08:17:59.283Z,32.50
2018-11-10T08:18:59.473Z,35.00
2018-11-10T08:19:59.627Z,34.10
2018-11-10T08:20:59.799Z,38.40
2018-11-10T08:21:59.975Z,38.10
2018-11-10T08:23:00.149Z,35.60
2018-11-10T08:24:00.322Z,34.40
2018-11-10T08:25:00.556Z,36.00
2018-11-10T08:26:00.677Z,35.80
2018-11-10T08:27:00.860Z,34.70
2018-11-10T08:28:01.024Z,34.10
2018-11-10T08:29:01.199Z,32.20
2018-11-10T08:30:01.376Z,33.60
2018-11-10T08:31:01.573Z,30.00
2018-11-10T08:32:01.733Z,28.80
2018-11-10T08:33:01.901Z,29.10
2018-11-10T08:34:02.076Z,31.10
2018-11-10T08:35:02.250Z,31.30
2018-11-10T08:36:02.423Z,30.70
2018-11-10T08:37:02.608Z,34.10
2018-11-10T08:38:02.779Z,33.90
2018-11-10T08:39:02.976Z,31.30
2018-11-10T08:40:03.141Z,31.20
2018-11-10T08:41:03.306Z,30.10
2018-11-10T08:42:03.483Z,31.90
2018-11-10T08:43:03.658Z,30.10
2018-11-10T08:44:03.833Z,30.20
2018-11-10T08:45:04.016Z,32.20
2018-11-10T08:46:04.179Z,29.90
2018-11-10T08:47:04.361Z,31.50
2018-11-10T08:48:04.535Z,29.80
2018-11-10T08:49:04.736Z,30.80
2018-11-10T08:50:04.884Z,29.20
2018-11-10T08:51:05.065Z,30.70
2018-11-10T08:52:05.234Z,34.20
2018-11-10T08:53:05.404Z,31.60
2018-11-10T08:54:05.585Z,28.50
2018-11-10T08:55:05.760Z,28.70
2018-11-10T08:56:05.933Z,30.70
2018-11-10T08:57:06.110Z,28.70
2018-11-10T08:58:06.282Z,30.60
2018-11-10T08:59:06.512Z,29.10
2018-11-10T09:00:06.637Z,29.20
2018-11-10T09:01:06.809Z,30.00
2018-11-10T09:02:06.983Z,30.80
2018-11-10T09:03:07.156Z,30.70
2018-11-10T09:04:07.333Z,30.00
2018-11-10T09:05:07.508Z,30.40
2018-11-10T09:06:07.696Z,31.10
2018-11-10T09:07:07.865Z,29.90
2018-11-10T09:08:08.066Z,32.40
2018-11-10T09:09:08.217Z,29.20
2018-11-10T09:10:08.403Z,110.50
2018-11-10T09:11:08.574Z,193.60
2018-11-10T09:12:08.754Z,196.80
2018-11-10T09:13:08.981Z,194.80
2018-11-10T09:14:09.101Z,40.50
2018-11-10T09:15:09.371Z,40.70
2018-11-10T09:16:09.456Z,32.70
2018-11-10T09:17:09.641Z,33.30
2018-11-10T09:18:09.856Z,33.60
2018-11-10T09:19:10.614Z,33.00
2018-11-10T09:20:10.179Z,34.40
2018-11-10T09:21:10.430Z,32.90
2018-11-10T09:22:10.533Z,33.20
2018-11-10T09:23:10.708Z,34.20
2018-11-10T09:24:10.879Z,31.30
2018-11-10T09:25:11.060Z,32.30
2018-11-10T09:26:11.231Z,33.00
2018-11-10T09:27:11.411Z,32.30
2018-11-10T09:28:11.587Z,32.70
2018-11-10T09:29:11.774Z,32.60
2018-11-10T09:30:11.941Z,31.80
2018-11-10T09:31:12.124Z,33.50
2018-11-10T09:32:12.300Z,32.90
2018-11-10T09:33:12.492Z,32.10
2018-11-10T09:34:12.650Z,33.20
2018-11-10T09:35:12.832Z,35.10
2018-11-10T09:36:13.011Z,34.10
2018-11-10T09:37:13.187Z,34.10
2018-11-10T09:38:13.341Z,31.70
2018-11-10T09:39:13.527Z,31.80
2018-11-10T09:40:13.718Z,31.50
2018-11-10T09:41:13.888Z,35.60
2018-11-10T09:42:14.164Z,32.40
2018-11-10T09:43:14.325Z,33.20
2018-11-10T09:44:14.416Z,31.50
2018-11-10T09:45:14.586Z,33.40
2018-11-10T09:46:14.762Z,39.40
2018-11-10T09:47:14.937Z,47.70
2018-11-10T09:48:15.125Z,37.00
2018-11-10T09:49:15.287Z,34.80
2018-11-10T09:50:15.482Z,32.80
2018-11-10T09:51:15.652Z,33.40
2018-11-10T09:52:15.828Z,30.70
2018-11-10T09:53:16.014Z,33.80
2018-11-10T09:54:16.195Z,30.70
2018-11-10T09:55:16.371Z,28.80
2018-11-10T09:56:16.547Z,28.70
2018-11-10T09:57:16.730Z,34.40
2018-11-10T09:58:16.901Z,30.80
2018-11-10T09:59:17.079Z,31.60
2018-11-10T10:00:17.256Z,32.80
2018-11-10T10:01:17.541Z,32.30
2018-11-10T10:02:17.984Z,28.40
2018-11-10T10:03:17.854Z,28.30
2018-11-10T10:04:17.954Z,29.90
2018-11-10T10:05:18.122Z,27.70
2018-11-10T10:06:18.305Z,28.10
2018-11-10T10:07:18.480Z,30.10
2018-11-10T10:08:18.666Z,29.00
2018-11-10T10:09:18.834Z,26.00
2018-11-10T10:10:19.013Z,27.40
2018-11-10T10:11:19.190Z,29.50
2018-11-10T10:12:19.356Z,29.10
2018-11-10T10:13:19.543Z,27.50
2018-11-10T10:14:19.718Z,31.00
2018-11-10T10:15:19.892Z,29.90
2018-11-10T10:16:20.197Z,30.90
2018-11-10T10:17:20.243Z,28.10
2018-11-10T10:18:20.423Z,27.60
2018-11-10T10:19:20.601Z,28.30
2018-11-10T10:20:20.777Z,28.20
2018-11-10T10:21:20.953Z,30.50
2018-11-10T10:22:21.129Z,27.70
2018-11-10T10:23:21.303Z,29.80
2018-11-10T10:24:21.488Z,28.30
2018-11-10T10:25:21.658Z,27.60
2018-11-10T10:26:21.833Z,30.80
2018-11-10T10:27:22.010Z,29.60
2018-11-10T10:28:22.233Z,33.50
2018-11-10T10:29:22.406Z,29.50
2018-11-10T10:30:22.702Z,36.50
2018-11-10T10:31:22.701Z,33.80
2018-11-10T10:32:22.875Z,31.80
2018-11-10T10:33:23.048Z,27.50
2018-11-10T10:34:23.289Z,28.60
2018-11-10T10:35:23.580Z,27.70
2018-11-10T10:36:23.589Z,26.30
2018-11-10T10:37:23.759Z,30.40
2018-11-10T10:38:23.939Z,33.50
2018-11-10T10:39:24.133Z,32.20
2018-11-10T10:40:24.294Z,35.20
2018-11-10T10:41:24.472Z,34.70
2018-11-10T10:42:24.656Z,34.70
2018-11-10T10:43:24.826Z,34.30
2018-11-10T10:44:25.002Z,39.00
2018-11-10T10:45:25.261Z,35.20
2018-11-10T10:46:25.425Z,35.50
2018-11-10T10:47:25.591Z,32.70
2018-11-10T10:48:25.780Z,31.20
2018-11-10T10:49:25.961Z,33.30
2018-11-10T10:50:26.111Z,31.20
2018-11-10T10:51:26.307Z,32.10
2018-11-10T10:52:26.483Z,30.00
2018-11-10T10:53:26.687Z,32.40
2018-11-10T10:54:26.889Z,31.90
2018-11-10T10:55:27.057Z,34.60
2018-11-10T10:56:27.341Z,35.50
2018-11-10T10:57:27.425Z,30.80
2018-11-10T10:58:27.607Z,35.40
2018-11-10T10:59:27.777Z,39.70
2018-11-10T11:00:27.958Z,31.60
2018-11-10T11:01:28.146Z,29.90
2018-11-10T11:02:28.322Z,32.60
2018-11-10T11:03:28.539Z,27.90
2018-11-10T11:04:28.681Z,29.00
2018-11-10T11:05:28.860Z,29.50
2018-11-10T11:06:29.037Z,29.80
2018-11-10T11:07:29.213Z,30.90
2018-11-10T11:08:29.400Z,30.80
2018-11-10T11:09:29.714Z,29.80
2018-11-10T11:10:29.759Z,28.00
2018-11-10T11:11:29.923Z,32.60
2018-11-10T11:12:30.168Z,30.50
2018-11-10T11:13:30.274Z,31.70
2018-11-10T11:14:30.451Z,30.60
2018-11-10T11:15:30.710Z,29.30
2018-11-10T11:16:30.808Z,27.70
2018-11-10T11:17:30.976Z,28.70
2018-11-10T11:18:31.152Z,27.40
2018-11-10T11:19:31.334Z,28.90
2018-11-10T11:20:31.523Z,28.50
2018-11-10T11:21:31.697Z,28.60
2018-11-10T11:22:31.871Z,29.10
2018-11-10T11:23:32.053Z,29.50
2018-11-10T11:24:32.226Z,27.40
2018-11-10T11:25:32.414Z,27.20
2018-11-10T11:26:32.585Z,30.20
2018-11-10T11:27:32.756Z,27.10
2018-11-10T11:28:32.934Z,29.20
2018-11-10T11:29:33.122Z,25.60
2018-11-10T11:30:33.308Z,26.20
2018-11-10T11:31:33.470Z,28.90
2018-11-10T11:32:33.656Z,27.10
2018-11-10T11:33:33.826Z,28.80
2018-11-10T11:34:34.021Z,27.50
2018-11-10T11:35:34.180Z,28.80
2018-11-10T11:36:34.357Z,29.10
2018-11-10T11:37:34.540Z,30.50
2018-11-10T11:38:34.711Z,26.60
2018-11-10T11:39:34.890Z,28.90
2018-11-10T11:40:35.070Z,28.80
2018-11-10T11:41:35.314Z,26.40
2018-11-10T11:42:35.437Z,28.90
2018-11-10T11:43:35.615Z,29.20
2018-11-10T11:44:35.782Z,31.20
2018-11-10T11:45:35.965Z,29.40
2018-11-10T11:46:36.144Z,27.60
2018-11-10T11:47:36.319Z,29.20
2018-11-10T11:48:36.497Z,29.80
2018-11-10T11:49:36.707Z,28.90
2018-11-10T11:50:36.862Z,29.20
2018-11-10T11:51:37.056Z,28.00
2018-11-10T11:52:37.234Z,28.20
2018-11-10T11:53:37.411Z,30.90
2018-11-10T11:54:37.588Z,28.40
2018-11-10T11:55:37.766Z,27.10
2018-11-10T11:56:37.946Z,28.90
2018-11-10T11:57:38.257Z,28.60
2018-11-10T11:58:38.306Z,29.70
2018-11-10T11:59:38.495Z,26.30
2018-11-10T12:00:38.667Z,27.80
2018-11-10T12:01:38.837Z,27.60
2018-11-10T12:02:39.016Z,30.00
2018-11-10T12:03:39.195Z,29.20
2018-11-10T12:04:39.455Z,30.40
2018-11-10T12:05:39.554Z,29.20
2018-11-10T12:06:39.725Z,29.90
2018-11-10T12:07:39.906Z,30.40
2018-11-10T12:08:40.085Z,27.30
2018-11-10T12:09:40.263Z,27.30
2018-11-10T12:10:40.439Z,27.80
2018-11-10T12:11:40.646Z,28.10
2018-11-10T12:12:40.796Z,29.30
2018-11-10T12:13:40.982Z,29.10
2018-11-10T12:14:41.152Z,26.20
2018-11-10T12:15:41.330Z,25.90
2018-11-10T12:16:41.679Z,26.10
2018-11-10T12:17:41.681Z,26.40
2018-11-10T12:18:41.867Z,24.30
2018-11-10T12:19:42.037Z,27.10
2018-11-10T12:20:42.286Z,27.00
2018-11-10T12:21:42.398Z,25.50
2018-11-10T12:22:42.577Z,29.10
2018-11-10T12:23:42.750Z,24.10
2018-11-10T12:24:42.928Z,28.30
2018-11-10T12:25:43.130Z,29.20
2018-11-10T12:26:43.335Z,35.10
2018-11-10T12:27:43.472Z,37.20
2018-11-10T12:28:43.645Z,28.70
2018-11-10T12:29:43.823Z,26.50
2018-11-10T12:30:44.003Z,26.00
2018-11-10T12:31:44.213Z,28.60
2018-11-10T12:32:44.359Z,24.50
2018-11-10T12:33:44.538Z,24.90
2018-11-10T12:34:44.722Z,24.10
2018-11-10T12:35:44.895Z,24.80
2018-11-10T12:36:45.075Z,23.70
2018-11-10T12:37:45.249Z,24.80
2018-11-10T12:38:45.575Z,22.80
2018-11-10T12:39:45.606Z,24.90
2018-11-10T12:40:45.783Z,24.60
2018-11-10T12:41:45.971Z,28.20
2018-11-10T12:42:46.143Z,28.60
2018-11-10T12:43:46.321Z,28.90
2018-11-10T12:44:46.501Z,25.90
2018-11-10T12:45:46.681Z,27.60
2018-11-10T12:46:46.861Z,30.90
2018-11-10T12:47:47.047Z,28.30
2018-11-10T12:48:47.222Z,28.40
2018-11-10T12:49:47.393Z,26.90
2018-11-10T12:50:47.574Z,26.60
2018-11-10T12:51:47.749Z,25.00
2018-11-10T12:52:47.957Z,25.80
2018-11-10T12:53:48.084Z,23.50
2018-11-10T12:54:48.328Z,23.60